• Join FlightAware (Why Join?)
  • Login
  • US Flag 
12:59AM EST


 

Airport Tracker/Info


-or-


 

Live Flight TrackerFlight Track Log ✈ N855BC ✈ 04-Sep-2014 ✈ KFXE - MDLR / LRM

Flight Track Log - Related Links

Times and Time Zones

All times are in EDT time to prevent confusion due to time zone crossing. See the N855BC flight status page for this flight to view local times or setup timezone preferences in your user account.

Time Position Orientation Groundspeed Altitude Reporting Facility
EDT Latitude Longitude Course Direction KTS MPH feet Rate Location/Type
09:35AM 26.2003 -80.1522 82° East 159 183 500  Level Miami Center
09:36AM 26.2089 -80.0856 82° East 209 241 1,900 1,380 Climbing Miami Center
09:36AM 26.2128 -80.0508 83° East 244 281 2,600 1,620 Climbing Miami Center
09:37AM 26.2175 -80.0119 82° East 236 272 3,600 1,740 Climbing Miami Center
09:37AM 26.2147 -79.9883 97° East 237 273 4,200 1,440 Climbing Miami Center
09:38AM 26.1950 -79.9494 119° Southeast 225 259 5,100 1,440 Climbing Miami Center
09:38AM 26.1808 -79.9256 123° Southeast 236 272 5,700 1,260 Climbing Miami Center
09:39AM 26.1708 -79.8806 104° East 253 291 6,400 1,140 Climbing Miami Center
09:39AM 26.1728 -79.8506 86° East 266 306 6,900 1,560 Climbing Miami Center
09:40AM 26.1808 -79.7992 80° East 263 303 8,000 1,920 Climbing Miami Center
09:41AM 26.1931 -79.6886 83° East 310 357 10,300 1,920 Climbing Miami Center
09:42AM 26.2042 -79.5997 82° East 339 390 12,000 1,800 Climbing Miami Center
09:43AM 26.1878 -79.4969 100° East 351 404 14,000 2,100 Climbing Miami Center
09:44AM 26.1192 -79.3942 127° Southeast 348 400 16,300 1,980 Climbing Miami Center
09:45AM 26.0636 -79.3064 125° Southeast 348 400 18,100 1,800 Climbing Miami Center
09:46AM 26.0167 -79.2153 120° Southeast 344 396 20,100 1,860 Climbing Miami Center
09:47AM 25.9675 -79.1264 122° Southeast 339 390 22,000 1,860 Climbing Miami Center
09:48AM 25.9214 -79.0386 120° Southeast 334 384 24,000 1,920 Climbing Miami Center
09:49AM 25.8783 -78.9497 118° Southeast 320 368 26,000 1,440 Climbing Miami Center
09:50AM 25.8344 -78.8694 121° Southeast 306 352 27,000 480 Climbing Miami Center
09:51AM 25.7872 -78.7753 119° Southeast 348 400 27,000  Level Miami Center
09:52AM 25.7281 -78.6639 121° Southeast 386 444 27,000  Level Miami Center
09:53AM 25.6633 -78.5392 120° Southeast 418 481 27,000  Level Miami Center
09:54AM 25.6031 -78.4222 120° Southeast 434 499 27,000  Level Miami Center
09:55AM 25.5408 -78.3044 120° Southeast 441 507 27,000  Level Miami Center
09:56AM 25.4769 -78.1833 120° Southeast 449 517 27,000  Level Miami Center
09:57AM 25.4108 -78.0622 121° Southeast 455 524 27,000  Level Miami Center
09:58AM 25.3383 -77.9283 121° Southeast 457 526 27,000  Level Miami Center
09:59AM 25.2750 -77.8083 120° Southeast 456 525 27,000  Level Miami Center
10:00AM 25.2097 -77.6881 121° Southeast 455 524 27,000  Level Miami Center
10:01AM 25.1453 -77.5683 121° Southeast 455 524 27,000  Level Miami Center
10:02AM 25.0767 -77.4389 120° Southeast 456 525 27,000  Level Miami Center
10:03AM 25.0122 -77.3219 121° Southeast 457 526 27,000  Level Miami Center
10:04AM 24.9472 -77.2033 121° Southeast 454 522 27,000  Level Miami Center
10:05AM 24.8761 -77.0717 121° Southeast 456 525 27,000  Level Miami Center
10:06AM 24.8100 -76.9508 121° Southeast 457 526 27,000  Level Miami Center
10:08AM 24.7444 -76.8314 121° Southeast 457 526 27,000  Level Miami Center
10:09AM 24.6792 -76.7119 121° Southeast 458 527 27,000  Level Miami Center
10:10AM 24.6125 -76.5914 121° Southeast 459 528 27,000  Level Miami Center
10:11AM 24.5389 -76.4594 122° Southeast 459 528 27,000  Level Miami Center
10:12AM 24.4725 -76.3403 121° Southeast 460 529 27,000  Level Miami Center
10:13AM 24.4056 -76.2164 121° Southeast 459 528 27,000  Level Miami Center
10:14AM 24.3375 -76.0956 122° Southeast 464 534 27,000  Level Miami Center
10:15AM 24.2708 -75.9758 121° Southeast 463 533 27,000  Level Miami Center
10:16AM 24.2044 -75.8561 121° Southeast 460 529 27,000  Level Miami Center
10:17AM 24.1364 -75.7369 122° Southeast 459 528 27,000  Level Miami Center
10:18AM 24.0706 -75.6181 121° Southeast 454 522 27,000  Level Miami Center
10:19AM 24.0050 -75.4997 121° Southeast 454 522 27,000  Level Miami Center
10:20AM 23.9369 -75.3817 122° Southeast 454 522 27,000  Level Miami Center
10:21AM 23.8714 -75.2633 121° Southeast 454 522 27,000  Level Miami Center
10:22AM 23.7897 -75.1208 122° Southeast 456 525 27,000  Level Miami Center
10:23AM 23.7222 -75.0019 122° Southeast 456 525 27,000  Level Miami Center
10:24AM 23.6542 -74.8833 122° Southeast 457 526 27,000  Level Miami Center
10:25AM 23.5869 -74.7644 122° Southeast 457 526 27,000  Level Miami Center
10:26AM 23.5175 -74.6467 123° Southeast 457 526 27,000  Level Miami Center
10:27AM 23.4497 -74.5269 122° Southeast 459 528 27,000  Level Miami Center
10:28AM 23.3806 -74.4086 122° Southeast 460 529 27,000  Level Miami Center
10:29AM 23.3111 -74.2906 123° Southeast 461 531 27,000  Level Miami Center
10:30AM 23.2431 -74.1706 122° Southeast 462 532 27,000  Level Miami Center
10:31AM 23.1614 -74.0272 122° Southeast 463 533 27,000  Level Miami Center
10:32AM 23.0906 -73.9081 123° Southeast 464 534 27,000  Level Miami Center
10:33AM 23.0217 -73.7889 122° Southeast 464 534 27,000  Level Miami Center
10:34AM 22.9506 -73.6706 123° Southeast 465 535 27,000  Level Miami Center
10:35AM 22.8803 -73.5517 123° Southeast 466 536 27,000  Level Miami Center
10:36AM 22.8133 -73.4317 121° Southeast 466 536 27,000  Level Miami Center
10:37AM 22.7394 -73.3142 124° Southeast 466 536 27,000  Level Miami Center
10:38AM 22.6594 -73.1708 121° Southeast 466 536 27,000  Level Miami Center
10:39AM 22.5956 -73.0614 122° Southeast 466 536 27,000  Level Miami Center
10:40AM 22.5250 -72.9442 123° Southeast 466 536 27,000  Level Miami Center
10:41AM 22.4561 -72.8267 122° Southeast 466 536 27,000  Level Miami Center
10:42AM 22.3731 -72.6856 122° Southeast 465 535 27,000  Level Miami Center
10:43AM 22.3031 -72.5681 123° Southeast 465 535 27,000  Level Miami Center
10:45AM 22.2339 -72.4503 122° Southeast 465 535 27,000  Level Miami Center
10:46AM 22.1644 -72.3322 122° Southeast 464 534 27,000  Level Miami Center
10:47AM 22.0942 -72.2150 123° Southeast 464 534 27,000  Level Miami Center
10:48AM 22.0239 -72.0981 123° Southeast 464 534 27,000  Level Miami Center
10:49AM 21.9544 -71.9806 122° Southeast 464 534 27,000  Level Miami Center
10:50AM 21.8844 -71.8622 123° Southeast 465 535 27,000  Level Miami Center
10:51AM 21.7997 -71.7208 123° Southeast 465 535 27,000  Level Miami Center
10:52AM 21.7283 -71.6050 124° Southeast 465 535 27,000  Level Miami Center
10:53AM 21.6575 -71.4875 123° Southeast 465 535 27,000  Level Miami Center
10:54AM 21.5867 -71.3722 123° Southeast 465 535 27,000  Level Miami Center
10:55AM 21.5156 -71.2550 123° Southeast 465 535 27,000  Level Miami Center
10:56AM 21.4372 -71.1256 123° Southeast 465 535 27,000  Level Miami Center
10:57AM 21.3394 -71.0317 138° Southeast 471 542 27,000  Level Miami Center
10:58AM 21.2442 -70.9381 138° Southeast 463 533 27,000  Level Miami Center
10:59AM 21.1489 -70.8444 137° Southeast 463 533 27,000  Level Miami Center
11:00AM 21.0539 -70.7514 138° Southeast 463 533 27,000  Level Miami Center
11:01AM 20.9583 -70.6572 137° Southeast 463 533 27,000  Level Miami Center
11:02AM 20.8433 -70.5447 138° Southeast 463 533 27,000  Level Miami Center
11:03AM 20.7478 -70.4514 138° Southeast 463 533 27,000  Level Miami Center
11:04AM 20.6522 -70.3581 138° Southeast 463 533 27,000  Level Miami Center
11:05AM 20.5572 -70.2642 137° Southeast 463 533 27,000  Level Miami Center
11:06AM 20.4614 -70.1711 138° Southeast 463 533 27,000  Level Miami Center
11:07AM 20.3656 -70.0786 138° Southeast 463 533 27,000  Level Miami Center
11:08AM 20.2700 -69.9853 137° Southeast 463 533 27,000  Level Miami Center
11:09AM 20.1731 -69.8919 138° Southeast 464 534 27,000 -180 Level Miami Center
11:10AM 20.0556 -69.7831 139° Southeast 464 534 26,700 -300 Descending Miami Center
11:12AM 19.9455 -69.6811 155° Southeast  Level FlightAware Approximate
11:19AM 19.2219 -69.3275 155° Southeast  Level FlightAware Approximate
11:20AM 19.1192 -69.2755 152° Southeast  Level FlightAware Approximate
11:21AM 19.0183 -69.2194 152° Southeast  Level FlightAware Approximate
11:22AM 18.9142 -69.1712 158° South  Level FlightAware Approximate
11:23AM 18.8082 -69.1270 158° South  Level FlightAware Approximate
11:24AM 18.7062 -69.0738 152° Southeast  Level FlightAware Approximate
11:25AM 18.6049 -69.0191 155° Southeast  Level FlightAware Approximate
11:26AM 18.5004 -68.9752 155° Southeast  Level FlightAware Approximate
11:27AM 18.4167 -68.9167 145° Southeast  Level FlightAware Approximate
11:28AM 18.4507 -68.9118 145° Southeast  Level Estimated
11:29AM 18.4507 -68.9118 145° Southeast  Level Estimated
11:30AM 18.4507 -68.9118 145° Southeast  Level Estimated
11:31AM 18.4507 -68.9118 145° Southeast  Level Estimated
11:32AM 18.4507 -68.9118 145° Southeast  Level Estimated
11:33AM 18.4507 -68.9118 145° Southeast  Level Estimated
11:34AM 18.4507 -68.9118 145° Southeast  Level Estimated
11:35AM 18.4507 -68.9118 145° Southeast  Level Estimated
11:36AM 18.4507 -68.9118 145° Southeast  Level Estimated
11:37AM 18.4507 -68.9118 145° Southeast  Level Estimated
11:38AM 18.4507 -68.9118 145° Southeast  Level Estimated
11:39AM 18.4507 -68.9118 145° Southeast  Level Estimated